sensor_id;sensor_type;location;lat;lon;timestamp;temperature;humidity
423;DHT22;198;48.752;9.180;2022-12-18T00:01:38;-5.00;99.90
423;DHT22;198;48.752;9.180;2022-12-18T00:04:04;-5.00;99.90
423;DHT22;198;48.752;9.180;2022-12-18T00:06:31;-5.00;99.90
423;DHT22;198;48.752;9.180;2022-12-18T00:08:58;-5.00;99.90
423;DHT22;198;48.752;9.180;2022-12-18T00:11:27;-5.10;99.90
423;DHT22;198;48.752;9.180;2022-12-18T00:13:54;-5.20;99.90
423;DHT22;198;48.752;9.180;2022-12-18T00:16:23;-5.20;99.90
423;DHT22;198;48.752;9.180;2022-12-18T00:18:50;-5.20;99.90
423;DHT22;198;48.752;9.180;2022-12-18T00:21:16;-5.20;99.90
423;DHT22;198;48.752;9.180;2022-12-18T00:23:43;-5.20;99.90
423;DHT22;198;48.752;9.180;2022-12-18T00:26:19;-5.20;99.90
423;DHT22;198;48.752;9.180;2022-12-18T00:28:46;-5.20;99.90
423;DHT22;198;48.752;9.180;2022-12-18T00:31:18;-5.30;99.90
423;DHT22;198;48.752;9.180;2022-12-18T00:33:44;-5.30;99.90
423;DHT22;198;48.752;9.180;2022-12-18T00:36:12;-5.40;99.90
423;DHT22;198;48.752;9.180;2022-12-18T00:38:38;-5.50;99.90
423;DHT22;198;48.752;9.180;2022-12-18T00:41:07;-5.50;99.90
423;DHT22;198;48.752;9.180;2022-12-18T00:43:35;-5.50;99.90
423;DHT22;198;48.752;9.180;2022-12-18T00:46:00;-5.60;99.90
423;DHT22;198;48.752;9.180;2022-12-18T00:48:26;-5.60;99.90
423;DHT22;198;48.752;9.180;2022-12-18T00:50:52;-5.60;99.90
423;DHT22;198;48.752;9.180;2022-12-18T00:53:18;-5.60;99.90
423;DHT22;198;48.752;9.180;2022-12-18T00:55:44;-5.60;99.90
423;DHT22;198;48.752;9.180;2022-12-18T00:58:11;-5.60;99.90
423;DHT22;198;48.752;9.180;2022-12-18T01:00:37;-5.60;99.90
423;DHT22;198;48.752;9.180;2022-12-18T01:03:03;-5.70;99.90
423;DHT22;198;48.752;9.180;2022-12-18T01:05:29;-5.70;99.90
423;DHT22;198;48.752;9.180;2022-12-18T01:07:55;-5.80;99.90
423;DHT22;198;48.752;9.180;2022-12-18T01:10:21;-5.90;99.90
423;DHT22;198;48.752;9.180;2022-12-18T01:12:47;-6.00;99.90
423;DHT22;198;48.752;9.180;2022-12-18T01:15:13;-6.10;99.90
423;DHT22;198;48.752;9.180;2022-12-18T01:17:39;-6.20;99.90
423;DHT22;198;48.752;9.180;2022-12-18T01:20:05;-6.20;99.90
423;DHT22;198;48.752;9.180;2022-12-18T01:22:30;-6.20;99.90
423;DHT22;198;48.752;9.180;2022-12-18T01:24:56;-6.30;99.90
423;DHT22;198;48.752;9.180;2022-12-18T01:27:21;-6.30;99.90
423;DHT22;198;48.752;9.180;2022-12-18T01:29:47;-6.30;99.90
423;DHT22;198;48.752;9.180;2022-12-18T01:32:12;-6.30;99.90
423;DHT22;198;48.752;9.180;2022-12-18T01:34:38;-6.20;99.90
423;DHT22;198;48.752;9.180;2022-12-18T01:37:04;-6.20;99.90
423;DHT22;198;48.752;9.180;2022-12-18T01:39:30;-6.20;99.90
423;DHT22;198;48.752;9.180;2022-12-18T01:42:02;-6.20;99.90
423;DHT22;198;48.752;9.180;2022-12-18T01:47:39;-6.10;99.90
423;DHT22;198;48.752;9.180;2022-12-18T01:52:34;-6.10;99.90
423;DHT22;198;48.752;9.180;2022-12-18T01:55:02;-6.20;99.90
423;DHT22;198;48.752;9.180;2022-12-18T01:57:28;-6.10;99.90
423;DHT22;198;48.752;9.180;2022-12-18T01:59:59;-6.00;99.90
423;DHT22;198;48.752;9.180;2022-12-18T02:02:28;-5.90;99.90
423;DHT22;198;48.752;9.180;2022-12-18T02:04:54;-5.80;99.90
423;DHT22;198;48.752;9.180;2022-12-18T02:07:37;-5.80;99.90
423;DHT22;198;48.752;9.180;2022-12-18T02:10:18;-5.80;99.90
423;DHT22;198;48.752;9.180;2022-12-18T02:16:09;-5.70;99.90
423;DHT22;198;48.752;9.180;2022-12-18T02:18:42;-5.60;99.90
423;DHT22;198;48.752;9.180;2022-12-18T02:24:33;-5.60;99.90
423;DHT22;198;48.752;9.180;2022-12-18T02:26:45;-5.60;99.90
423;DHT22;198;48.752;9.180;2022-12-18T02:29:25;-5.50;99.90
423;DHT22;198;48.752;9.180;2022-12-18T02:31:56;-5.50;99.90
423;DHT22;198;48.752;9.180;2022-12-18T02:34:26;-5.50;99.90
423;DHT22;198;48.752;9.180;2022-12-18T02:36:54;-5.60;99.90
423;DHT22;198;48.752;9.180;2022-12-18T02:39:21;-5.60;99.90
423;DHT22;198;48.752;9.180;2022-12-18T02:41:48;-5.60;99.90
423;DHT22;198;48.752;9.180;2022-12-18T02:44:14;-5.60;99.90
423;DHT22;198;48.752;9.180;2022-12-18T02:46:46;-5.70;99.90
423;DHT22;198;48.752;9.180;2022-12-18T03:00:00;-5.80;99.90
423;DHT22;198;48.752;9.180;2022-12-18T03:02:37;-5.90;99.90
423;DHT22;198;48.752;9.180;2022-12-18T03:07:41;-5.90;99.90
423;DHT22;198;48.752;9.180;2022-12-18T03:10:09;-5.80;99.90
423;DHT22;198;48.752;9.180;2022-12-18T03:12:42;-5.90;99.90
423;DHT22;198;48.752;9.180;2022-12-18T03:15:22;-5.90;99.90
423;DHT22;198;48.752;9.180;2022-12-18T03:18:01;-5.90;99.90
423;DHT22;198;48.752;9.180;2022-12-18T03:20:30;-5.90;99.90
423;DHT22;198;48.752;9.180;2022-12-18T03:23:08;-5.90;99.90
423;DHT22;198;48.752;9.180;2022-12-18T03:25:40;-5.80;99.90
423;DHT22;198;48.752;9.180;2022-12-18T03:28:12;-5.80;99.90
423;DHT22;198;48.752;9.180;2022-12-18T03:30:39;-5.80;99.90
423;DHT22;198;48.752;9.180;2022-12-18T03:33:12;-5.80;99.90
423;DHT22;198;48.752;9.180;2022-12-18T03:35:42;-5.80;99.90
423;DHT22;198;48.752;9.180;2022-12-18T03:38:09;-5.80;99.90
423;DHT22;198;48.752;9.180;2022-12-18T03:40:50;-5.90;99.90
423;DHT22;198;48.752;9.180;2022-12-18T03:46:05;-6.10;99.90
423;DHT22;198;48.752;9.180;2022-12-18T03:48:39;-6.10;99.90
423;DHT22;198;48.752;9.180;2022-12-18T03:51:15;-6.20;99.90
423;DHT22;198;48.752;9.180;2022-12-18T03:54:00;-6.20;99.90
423;DHT22;198;48.752;9.180;2022-12-18T03:56:31;-6.20;99.90
423;DHT22;198;48.752;9.180;2022-12-18T03:58:59;-6.20;99.90
423;DHT22;198;48.752;9.180;2022-12-18T04:01:34;-6.30;99.90
423;DHT22;198;48.752;9.180;2022-12-18T04:04:01;-6.40;99.90
423;DHT22;198;48.752;9.180;2022-12-18T04:06:29;-6.50;99.90
423;DHT22;198;48.752;9.180;2022-12-18T04:08:55;-6.50;99.90
423;DHT22;198;48.752;9.180;2022-12-18T04:11:21;-6.60;99.90
423;DHT22;198;48.752;9.180;2022-12-18T04:13:47;-6.60;99.90
423;DHT22;198;48.752;9.180;2022-12-18T04:16:12;-6.70;99.90
423;DHT22;198;48.752;9.180;2022-12-18T04:18:38;-6.80;99.90
423;DHT22;198;48.752;9.180;2022-12-18T04:21:03;-6.90;99.90
423;DHT22;198;48.752;9.180;2022-12-18T04:23:29;-6.90;99.90
423;DHT22;198;48.752;9.180;2022-12-18T04:25:54;-7.00;99.90
423;DHT22;198;48.752;9.180;2022-12-18T04:28:20;-7.00;99.90
423;DHT22;198;48.752;9.180;2022-12-18T04:30:49;-7.10;99.90
423;DHT22;198;48.752;9.180;2022-12-18T04:33:14;-7.10;99.90
423;DHT22;198;48.752;9.180;2022-12-18T04:35:40;-7.20;99.90
423;DHT22;198;48.752;9.180;2022-12-18T04:38:07;-7.20;99.90
423;DHT22;198;48.752;9.180;2022-12-18T04:40:33;-7.20;99.90
423;DHT22;198;48.752;9.180;2022-12-18T04:42:59;-7.30;99.90
423;DHT22;198;48.752;9.180;2022-12-18T04:45:24;-7.30;99.90
423;DHT22;198;48.752;9.180;2022-12-18T04:47:50;-7.30;99.90
423;DHT22;198;48.752;9.180;2022-12-18T04:50:15;-7.20;99.90
423;DHT22;198;48.752;9.180;2022-12-18T04:52:41;-7.30;99.90
423;DHT22;198;48.752;9.180;2022-12-18T04:55:07;-7.30;99.90
423;DHT22;198;48.752;9.180;2022-12-18T04:57:32;-7.30;99.90
423;DHT22;198;48.752;9.180;2022-12-18T04:59:58;-7.40;99.90
423;DHT22;198;48.752;9.180;2022-12-18T05:02:23;-7.50;99.90
423;DHT22;198;48.752;9.180;2022-12-18T05:04:49;-7.50;99.90
423;DHT22;198;48.752;9.180;2022-12-18T05:07:14;-7.50;99.90
423;DHT22;198;48.752;9.180;2022-12-18T05:09:40;-7.40;99.90
423;DHT22;198;48.752;9.180;2022-12-18T05:12:05;-7.40;99.90
423;DHT22;198;48.752;9.180;2022-12-18T05:14:31;-7.40;99.90
423;DHT22;198;48.752;9.180;2022-12-18T05:16:56;-7.40;99.90
423;DHT22;198;48.752;9.180;2022-12-18T05:19:22;-7.30;99.90
423;DHT22;198;48.752;9.180;2022-12-18T05:21:47;-7.30;99.90
423;DHT22;198;48.752;9.180;2022-12-18T05:24:13;-7.40;99.90
423;DHT22;198;48.752;9.180;2022-12-18T05:26:38;-7.40;99.90
423;DHT22;198;48.752;9.180;2022-12-18T05:29:04;-7.40;99.90
423;DHT22;198;48.752;9.180;2022-12-18T05:31:29;-7.30;99.90
423;DHT22;198;48.752;9.180;2022-12-18T05:33:55;-7.30;99.90
423;DHT22;198;48.752;9.180;2022-12-18T05:36:20;-7.30;99.90
423;DHT22;198;48.752;9.180;2022-12-18T05:38:46;-7.30;99.90
423;DHT22;198;48.752;9.180;2022-12-18T05:41:11;-7.30;99.90
423;DHT22;198;48.752;9.180;2022-12-18T05:43:38;-7.30;99.90
423;DHT22;198;48.752;9.180;2022-12-18T05:46:10;-7.20;99.90
423;DHT22;198;48.752;9.180;2022-12-18T05:48:36;-7.20;99.90
423;DHT22;198;48.752;9.180;2022-12-18T05:51:10;-7.20;99.90
423;DHT22;198;48.752;9.180;2022-12-18T05:53:36;-7.20;99.90
423;DHT22;198;48.752;9.180;2022-12-18T05:56:04;-7.30;99.90
423;DHT22;198;48.752;9.180;2022-12-18T05:58:30;-7.20;99.90
423;DHT22;198;48.752;9.180;2022-12-18T06:00:57;-7.30;99.90
423;DHT22;198;48.752;9.180;2022-12-18T06:03:23;-7.30;99.90
423;DHT22;198;48.752;9.180;2022-12-18T06:05:48;-7.30;99.90
423;DHT22;198;48.752;9.180;2022-12-18T06:08:14;-7.40;99.90
423;DHT22;198;48.752;9.180;2022-12-18T06:10:41;-7.40;99.90
423;DHT22;198;48.752;9.180;2022-12-18T06:13:06;-7.30;99.90
423;DHT22;198;48.752;9.180;2022-12-18T06:15:33;-7.30;99.90
423;DHT22;198;48.752;9.180;2022-12-18T06:18:01;-7.30;99.90
423;DHT22;198;48.752;9.180;2022-12-18T06:20:26;-7.20;99.90
423;DHT22;198;48.752;9.180;2022-12-18T06:22:52;-7.20;99.90
423;DHT22;198;48.752;9.180;2022-12-18T06:25:17;-7.20;99.90
423;DHT22;198;48.752;9.180;2022-12-18T06:27:43;-7.20;99.90
423;DHT22;198;48.752;9.180;2022-12-18T06:30:09;-7.10;99.90
423;DHT22;198;48.752;9.180;2022-12-18T06:32:35;-7.10;99.90
423;DHT22;198;48.752;9.180;2022-12-18T06:35:00;-7.10;99.90
423;DHT22;198;48.752;9.180;2022-12-18T06:37:26;-7.00;99.90
423;DHT22;198;48.752;9.180;2022-12-18T06:39:55;-7.00;99.90
423;DHT22;198;48.752;9.180;2022-12-18T06:42:22;-7.00;99.90
423;DHT22;198;48.752;9.180;2022-12-18T06:44:47;-7.10;99.90
423;DHT22;198;48.752;9.180;2022-12-18T06:47:13;-7.00;99.90
423;DHT22;198;48.752;9.180;2022-12-18T06:49:38;-7.00;99.90
423;DHT22;198;48.752;9.180;2022-12-18T06:52:04;-7.00;99.90
423;DHT22;198;48.752;9.180;2022-12-18T06:54:29;-7.00;99.90
423;DHT22;198;48.752;9.180;2022-12-18T06:56:54;-7.00;99.90
423;DHT22;198;48.752;9.180;2022-12-18T06:59:21;-7.00;99.90
423;DHT22;198;48.752;9.180;2022-12-18T07:01:47;-7.00;99.90
423;DHT22;198;48.752;9.180;2022-12-18T07:04:12;-7.00;99.90
423;DHT22;198;48.752;9.180;2022-12-18T07:06:38;-6.90;99.90
423;DHT22;198;48.752;9.180;2022-12-18T07:09:03;-7.00;99.90
423;DHT22;198;48.752;9.180;2022-12-18T07:11:29;-6.90;99.90
423;DHT22;198;48.752;9.180;2022-12-18T07:13:54;-6.90;99.90
423;DHT22;198;48.752;9.180;2022-12-18T07:16:21;-6.80;99.90
423;DHT22;198;48.752;9.180;2022-12-18T07:18:47;-6.80;99.90
423;DHT22;198;48.752;9.180;2022-12-18T07:21:16;-6.70;99.90
423;DHT22;198;48.752;9.180;2022-12-18T07:23:42;-6.70;99.90
423;DHT22;198;48.752;9.180;2022-12-18T07:26:11;-6.60;99.90
423;DHT22;198;48.752;9.180;2022-12-18T07:28:38;-6.60;99.90
423;DHT22;198;48.752;9.180;2022-12-18T07:31:12;-6.50;99.90
423;DHT22;198;48.752;9.180;2022-12-18T07:33:38;-6.40;99.90
423;DHT22;198;48.752;9.180;2022-12-18T07:36:05;-6.30;99.90
423;DHT22;198;48.752;9.180;2022-12-18T07:38:33;-6.30;99.90
423;DHT22;198;48.752;9.180;2022-12-18T07:41:11;-6.20;99.90
423;DHT22;198;48.752;9.180;2022-12-18T07:43:38;-6.20;99.90
423;DHT22;198;48.752;9.180;2022-12-18T07:46:04;-6.10;99.90
423;DHT22;198;48.752;9.180;2022-12-18T07:48:31;-6.10;99.90
423;DHT22;198;48.752;9.180;2022-12-18T07:51:00;-6.00;99.90
423;DHT22;198;48.752;9.180;2022-12-18T07:53:26;-5.90;99.90
423;DHT22;198;48.752;9.180;2022-12-18T07:55:59;-5.90;99.90
423;DHT22;198;48.752;9.180;2022-12-18T07:58:26;-5.80;99.90
423;DHT22;198;48.752;9.180;2022-12-18T08:00:51;-5.70;99.90
423;DHT22;198;48.752;9.180;2022-12-18T08:03:17;-5.60;99.90
423;DHT22;198;48.752;9.180;2022-12-18T08:05:43;-5.50;99.90
423;DHT22;198;48.752;9.180;2022-12-18T08:08:08;-5.50;99.90
423;DHT22;198;48.752;9.180;2022-12-18T08:10:34;-5.50;99.90
423;DHT22;198;48.752;9.180;2022-12-18T08:12:59;-5.30;99.90
423;DHT22;198;48.752;9.180;2022-12-18T08:15:25;-5.20;99.90
423;DHT22;198;48.752;9.180;2022-12-18T08:17:50;-4.90;99.90
423;DHT22;198;48.752;9.180;2022-12-18T08:20:16;-4.70;99.90
423;DHT22;198;48.752;9.180;2022-12-18T08:22:43;-4.40;99.90
423;DHT22;198;48.752;9.180;2022-12-18T08:25:09;-4.00;99.90
423;DHT22;198;48.752;9.180;2022-12-18T08:27:34;-3.70;99.90
423;DHT22;198;48.752;9.180;2022-12-18T08:30:00;-3.30;99.90
423;DHT22;198;48.752;9.180;2022-12-18T08:32:27;-2.90;99.90
423;DHT22;198;48.752;9.180;2022-12-18T08:34:53;-2.50;99.90
423;DHT22;198;48.752;9.180;2022-12-18T08:37:19;-2.20;99.90
423;DHT22;198;48.752;9.180;2022-12-18T08:39:44;-1.60;99.90
423;DHT22;198;48.752;9.180;2022-12-18T08:42:10;-1.20;99.90
423;DHT22;198;48.752;9.180;2022-12-18T08:44:54;-0.60;98.90
423;DHT22;198;48.752;9.180;2022-12-18T08:47:20;0.00;96.30
423;DHT22;198;48.752;9.180;2022-12-18T08:49:45;0.40;94.00
423;DHT22;198;48.752;9.180;2022-12-18T08:52:14;1.00;92.10
423;DHT22;198;48.752;9.180;2022-12-18T08:54:39;1.60;90.60
423;DHT22;198;48.752;9.180;2022-12-18T08:57:05;2.00;85.70
423;DHT22;198;48.752;9.180;2022-12-18T08:59:30;2.60;81.10
423;DHT22;198;48.752;9.180;2022-12-18T09:01:56;3.20;76.80
423;DHT22;198;48.752;9.180;2022-12-18T09:04:22;3.80;73.30
423;DHT22;198;48.752;9.180;2022-12-18T09:06:47;4.20;68.40
423;DHT22;198;48.752;9.180;2022-12-18T09:09:13;4.60;65.00
423;DHT22;198;48.752;9.180;2022-12-18T09:11:39;5.00;62.50
423;DHT22;198;48.752;9.180;2022-12-18T09:14:04;5.30;59.50
423;DHT22;198;48.752;9.180;2022-12-18T09:16:31;5.60;58.40
423;DHT22;198;48.752;9.180;2022-12-18T09:18:58;6.00;56.70
423;DHT22;198;48.752;9.180;2022-12-18T09:21:33;6.30;55.40
423;DHT22;198;48.752;9.180;2022-12-18T09:23:59;6.50;55.00
423;DHT22;198;48.752;9.180;2022-12-18T09:26:25;6.50;53.50
423;DHT22;198;48.752;9.180;2022-12-18T09:28:51;6.70;52.50
423;DHT22;198;48.752;9.180;2022-12-18T09:31:19;6.70;52.10
423;DHT22;198;48.752;9.180;2022-12-18T09:33:44;6.90;52.10
423;DHT22;198;48.752;9.180;2022-12-18T09:36:15;7.20;51.30
423;DHT22;198;48.752;9.180;2022-12-18T09:38:42;7.50;51.60
423;DHT22;198;48.752;9.180;2022-12-18T09:43:50;8.20;49.10
423;DHT22;198;48.752;9.180;2022-12-18T09:46:23;8.30;49.00
423;DHT22;198;48.752;9.180;2022-12-18T09:48:53;8.50;47.70
423;DHT22;198;48.752;9.180;2022-12-18T09:51:28;8.60;47.50
423;DHT22;198;48.752;9.180;2022-12-18T09:54:11;8.50;47.00
423;DHT22;198;48.752;9.180;2022-12-18T09:56:41;7.90;47.10
423;DHT22;198;48.752;9.180;2022-12-18T10:01:41;6.60;49.80
423;DHT22;198;48.752;9.180;2022-12-18T10:04:08;6.50;50.50
423;DHT22;198;48.752;9.180;2022-12-18T10:09:33;6.10;51.00
423;DHT22;198;48.752;9.180;2022-12-18T10:14:49;6.10;51.40
423;DHT22;198;48.752;9.180;2022-12-18T10:20:16;4.30;53.30
423;DHT22;198;48.752;9.180;2022-12-18T10:22:59;3.20;55.80
423;DHT22;198;48.752;9.180;2022-12-18T10:26:04;2.20;58.70
423;DHT22;198;48.752;9.180;2022-12-18T10:28:30;1.70;60.50
423;DHT22;198;48.752;9.180;2022-12-18T10:30:56;1.20;63.40
423;DHT22;198;48.752;9.180;2022-12-18T10:33:24;1.20;65.90
423;DHT22;198;48.752;9.180;2022-12-18T10:35:51;1.50;65.30
423;DHT22;198;48.752;9.180;2022-12-18T10:46:19;0.80;69.40
423;DHT22;198;48.752;9.180;2022-12-18T10:51:21;0.60;74.90
423;DHT22;198;48.752;9.180;2022-12-18T10:53:53;0.80;75.00
423;DHT22;198;48.752;9.180;2022-12-18T10:56:20;0.70;75.20
423;DHT22;198;48.752;9.180;2022-12-18T10:58:56;0.60;76.30
423;DHT22;198;48.752;9.180;2022-12-18T11:01:21;0.70;78.10
423;DHT22;198;48.752;9.180;2022-12-18T11:06:18;0.80;78.80
423;DHT22;198;48.752;9.180;2022-12-18T11:09:03;1.00;79.00
423;DHT22;198;48.752;9.180;2022-12-18T11:11:29;1.10;79.00
423;DHT22;198;48.752;9.180;2022-12-18T11:14:03;1.30;79.20
423;DHT22;198;48.752;9.180;2022-12-18T11:16:42;1.30;77.60
423;DHT22;198;48.752;9.180;2022-12-18T11:19:32;1.60;78.00
423;DHT22;198;48.752;9.180;2022-12-18T11:22:00;2.00;77.20
423;DHT22;198;48.752;9.180;2022-12-18T11:24:34;2.70;76.30
423;DHT22;198;48.752;9.180;2022-12-18T11:27:03;3.60;70.80
423;DHT22;198;48.752;9.180;2022-12-18T11:29:35;3.90;68.90
423;DHT22;198;48.752;9.180;2022-12-18T11:32:36;4.20;69.10
423;DHT22;198;48.752;9.180;2022-12-18T11:35:17;4.50;67.10
423;DHT22;198;48.752;9.180;2022-12-18T11:37:49;4.90;64.80
423;DHT22;198;48.752;9.180;2022-12-18T11:40:20;5.10;63.20
423;DHT22;198;48.752;9.180;2022-12-18T11:42:54;5.70;62.40
423;DHT22;198;48.752;9.180;2022-12-18T11:45:28;6.10;60.10
423;DHT22;198;48.752;9.180;2022-12-18T11:48:02;6.10;58.40
423;DHT22;198;48.752;9.180;2022-12-18T11:50:50;6.10;58.30
423;DHT22;198;48.752;9.180;2022-12-18T11:53:16;6.10;57.70
423;DHT22;198;48.752;9.180;2022-12-18T11:58:50;6.00;56.80
423;DHT22;198;48.752;9.180;2022-12-18T12:09:40;6.00;57.50
423;DHT22;198;48.752;9.180;2022-12-18T12:12:28;5.60;57.80
423;DHT22;198;48.752;9.180;2022-12-18T12:15:04;5.10;58.70
423;DHT22;198;48.752;9.180;2022-12-18T12:17:51;4.60;59.20
423;DHT22;198;48.752;9.180;2022-12-18T12:20:47;4.10;61.10
423;DHT22;198;48.752;9.180;2022-12-18T12:23:17;3.60;63.10
423;DHT22;198;48.752;9.180;2022-12-18T12:25:50;3.10;63.70
423;DHT22;198;48.752;9.180;2022-12-18T12:28:29;3.00;65.00
423;DHT22;198;48.752;9.180;2022-12-18T12:33:49;3.10;67.10
423;DHT22;198;48.752;9.180;2022-12-18T12:39:02;3.10;65.90
423;DHT22;198;48.752;9.180;2022-12-18T12:41:32;3.00;66.00
423;DHT22;198;48.752;9.180;2022-12-18T12:44:27;2.80;66.80
423;DHT22;198;48.752;9.180;2022-12-18T12:46:57;2.60;66.50
423;DHT22;198;48.752;9.180;2022-12-18T12:49:26;2.50;67.00
423;DHT22;198;48.752;9.180;2022-12-18T12:52:11;2.20;67.70
423;DHT22;198;48.752;9.180;2022-12-18T12:54:39;2.20;68.80
423;DHT22;198;48.752;9.180;2022-12-18T12:57:08;2.10;69.30
423;DHT22;198;48.752;9.180;2022-12-18T13:00:04;2.10;69.90
423;DHT22;198;48.752;9.180;2022-12-18T13:06:05;1.80;71.20
423;DHT22;198;48.752;9.180;2022-12-18T13:10:49;1.70;72.50
423;DHT22;198;48.752;9.180;2022-12-18T13:13:49;1.70;73.50
423;DHT22;198;48.752;9.180;2022-12-18T13:16:19;1.60;74.20
423;DHT22;198;48.752;9.180;2022-12-18T13:18:56;1.70;74.70
423;DHT22;198;48.752;9.180;2022-12-18T13:21:25;1.70;75.20
423;DHT22;198;48.752;9.180;2022-12-18T13:23:52;1.70;75.40
423;DHT22;198;48.752;9.180;2022-12-18T13:34:18;1.50;78.90
423;DHT22;198;48.752;9.180;2022-12-18T13:36:45;1.50;79.30
423;DHT22;198;48.752;9.180;2022-12-18T13:41:42;1.50;81.00
423;DHT22;198;48.752;9.180;2022-12-18T13:46:51;1.40;82.70
423;DHT22;198;48.752;9.180;2022-12-18T13:52:02;1.40;83.70
423;DHT22;198;48.752;9.180;2022-12-18T13:56:59;1.30;84.70
423;DHT22;198;48.752;9.180;2022-12-18T13:59:32;1.30;85.30
423;DHT22;198;48.752;9.180;2022-12-18T14:02:00;1.20;87.20
423;DHT22;198;48.752;9.180;2022-12-18T14:04:33;1.20;86.30
423;DHT22;198;48.752;9.180;2022-12-18T14:07:05;1.10;87.50
423;DHT22;198;48.752;9.180;2022-12-18T14:09:36;1.00;88.50
423;DHT22;198;48.752;9.180;2022-12-18T14:12:03;1.00;89.50
423;DHT22;198;48.752;9.180;2022-12-18T14:14:48;1.00;90.00
423;DHT22;198;48.752;9.180;2022-12-18T14:17:16;0.90;90.20
423;DHT22;198;48.752;9.180;2022-12-18T14:19:47;0.80;90.60
423;DHT22;198;48.752;9.180;2022-12-18T14:22:16;0.70;90.90
423;DHT22;198;48.752;9.180;2022-12-18T14:24:42;0.60;91.10
423;DHT22;198;48.752;9.180;2022-12-18T14:27:23;0.50;91.80
423;DHT22;198;48.752;9.180;2022-12-18T14:29:49;0.40;92.10
423;DHT22;198;48.752;9.180;2022-12-18T14:32:18;0.30;92.60
423;DHT22;198;48.752;9.180;2022-12-18T14:34:49;0.30;93.20
423;DHT22;198;48.752;9.180;2022-12-18T14:37:22;0.10;93.60
423;DHT22;198;48.752;9.180;2022-12-18T14:40:02;0.10;94.30
423;DHT22;198;48.752;9.180;2022-12-18T14:42:29;0.00;94.80
423;DHT22;198;48.752;9.180;2022-12-18T14:48:06;-0.30;96.40
423;DHT22;198;48.752;9.180;2022-12-18T14:50:32;-0.40;97.30
423;DHT22;198;48.752;9.180;2022-12-18T14:52:57;-0.40;97.80
423;DHT22;198;48.752;9.180;2022-12-18T14:55:23;-0.50;98.00
423;DHT22;198;48.752;9.180;2022-12-18T14:57:51;-0.60;98.60
423;DHT22;198;48.752;9.180;2022-12-18T15:00:20;-0.70;99.20
423;DHT22;198;48.752;9.180;2022-12-18T15:02:50;-0.70;99.70
423;DHT22;198;48.752;9.180;2022-12-18T15:05:28;-0.80;99.90
423;DHT22;198;48.752;9.180;2022-12-18T15:07:59;-0.90;99.90
423;DHT22;198;48.752;9.180;2022-12-18T15:20:46;-1.40;99.90
423;DHT22;198;48.752;9.180;2022-12-18T15:23:22;-1.50;99.90
423;DHT22;198;48.752;9.180;2022-12-18T15:25:58;-1.60;99.90
423;DHT22;198;48.752;9.180;2022-12-18T15:28:49;-1.70;99.90
423;DHT22;198;48.752;9.180;2022-12-18T15:33:43;-2.10;99.90
423;DHT22;198;48.752;9.180;2022-12-18T15:36:16;-2.20;99.90
423;DHT22;198;48.752;9.180;2022-12-18T15:38:46;-2.10;99.90
423;DHT22;198;48.752;9.180;2022-12-18T15:41:14;-2.20;99.90
423;DHT22;198;48.752;9.180;2022-12-18T15:43:40;-2.20;99.90
423;DHT22;198;48.752;9.180;2022-12-18T15:46:09;-2.10;99.90
423;DHT22;198;48.752;9.180;2022-12-18T15:48:44;-2.20;99.90
423;DHT22;198;48.752;9.180;2022-12-18T15:51:17;-2.20;99.90
423;DHT22;198;48.752;9.180;2022-12-18T15:53:44;-2.30;99.90
423;DHT22;198;48.752;9.180;2022-12-18T15:56:14;-2.30;99.90
423;DHT22;198;48.752;9.180;2022-12-18T15:58:59;-2.40;99.90
423;DHT22;198;48.752;9.180;2022-12-18T16:01:27;-2.40;99.90
423;DHT22;198;48.752;9.180;2022-12-18T16:03:53;-2.40;99.90
423;DHT22;198;48.752;9.180;2022-12-18T16:06:20;-2.40;99.90
423;DHT22;198;48.752;9.180;2022-12-18T16:08:45;-2.40;99.90
423;DHT22;198;48.752;9.180;2022-12-18T16:11:30;-2.50;99.90
423;DHT22;198;48.752;9.180;2022-12-18T16:14:26;-2.50;99.90
423;DHT22;198;48.752;9.180;2022-12-18T16:16:56;-2.50;99.90
423;DHT22;198;48.752;9.180;2022-12-18T16:19:22;-2.50;99.90
423;DHT22;198;48.752;9.180;2022-12-18T16:21:48;-2.50;99.90
423;DHT22;198;48.752;9.180;2022-12-18T16:24:17;-2.50;99.90
423;DHT22;198;48.752;9.180;2022-12-18T16:26:43;-2.50;99.90
423;DHT22;198;48.752;9.180;2022-12-18T16:29:09;-2.40;99.90
423;DHT22;198;48.752;9.180;2022-12-18T16:31:35;-2.40;99.90
423;DHT22;198;48.752;9.180;2022-12-18T16:34:25;-2.30;99.90
423;DHT22;198;48.752;9.180;2022-12-18T16:36:58;-2.30;99.90
423;DHT22;198;48.752;9.180;2022-12-18T16:39:25;-2.30;99.90
423;DHT22;198;48.752;9.180;2022-12-18T16:41:52;-2.30;99.90
423;DHT22;198;48.752;9.180;2022-12-18T16:44:18;-2.30;99.90
423;DHT22;198;48.752;9.180;2022-12-18T16:46:44;-2.20;99.90
423;DHT22;198;48.752;9.180;2022-12-18T16:49:14;-2.10;99.90
423;DHT22;198;48.752;9.180;2022-12-18T16:51:40;-2.10;99.90
423;DHT22;198;48.752;9.180;2022-12-18T16:54:08;-2.10;99.90
423;DHT22;198;48.752;9.180;2022-12-18T16:56:34;-2.10;99.90
423;DHT22;198;48.752;9.180;2022-12-18T16:59:02;-2.10;99.90
423;DHT22;198;48.752;9.180;2022-12-18T17:01:29;-2.00;99.90
423;DHT22;198;48.752;9.180;2022-12-18T17:04:00;-2.10;99.90
423;DHT22;198;48.752;9.180;2022-12-18T17:06:27;-2.20;99.90
423;DHT22;198;48.752;9.180;2022-12-18T17:09:03;-2.20;99.90
423;DHT22;198;48.752;9.180;2022-12-18T17:11:31;-2.20;99.90
423;DHT22;198;48.752;9.180;2022-12-18T17:13:57;-2.20;99.90
423;DHT22;198;48.752;9.180;2022-12-18T17:16:23;-2.10;99.90
423;DHT22;198;48.752;9.180;2022-12-18T17:18:49;-2.10;99.90
423;DHT22;198;48.752;9.180;2022-12-18T17:21:15;-2.00;99.90
423;DHT22;198;48.752;9.180;2022-12-18T17:23:42;-2.10;99.90
423;DHT22;198;48.752;9.180;2022-12-18T17:26:08;-2.10;99.90
423;DHT22;198;48.752;9.180;2022-12-18T17:28:36;-2.00;99.90
423;DHT22;198;48.752;9.180;2022-12-18T17:31:02;-2.10;99.90
423;DHT22;198;48.752;9.180;2022-12-18T17:33:34;-2.10;99.90
423;DHT22;198;48.752;9.180;2022-12-18T17:35:59;-2.10;99.90
423;DHT22;198;48.752;9.180;2022-12-18T17:38:25;-2.00;99.90
423;DHT22;198;48.752;9.180;2022-12-18T17:40:50;-2.00;99.90
423;DHT22;198;48.752;9.180;2022-12-18T17:43:16;-2.00;99.90
423;DHT22;198;48.752;9.180;2022-12-18T17:45:41;-2.10;99.90
423;DHT22;198;48.752;9.180;2022-12-18T17:48:08;-2.00;99.90
423;DHT22;198;48.752;9.180;2022-12-18T17:50:34;-2.00;99.90
423;DHT22;198;48.752;9.180;2022-12-18T17:53:01;-2.10;99.90
423;DHT22;198;48.752;9.180;2022-12-18T17:55:27;-2.00;99.90
423;DHT22;198;48.752;9.180;2022-12-18T17:57:53;-2.00;99.90
423;DHT22;198;48.752;9.180;2022-12-18T18:00:19;-2.00;99.90
423;DHT22;198;48.752;9.180;2022-12-18T18:02:45;-2.00;99.90
423;DHT22;198;48.752;9.180;2022-12-18T18:05:11;-2.10;99.90
423;DHT22;198;48.752;9.180;2022-12-18T18:07:37;-2.10;99.90
423;DHT22;198;48.752;9.180;2022-12-18T18:10:04;-2.10;99.90
423;DHT22;198;48.752;9.180;2022-12-18T18:12:30;-2.00;99.90
423;DHT22;198;48.752;9.180;2022-12-18T18:15:14;-2.00;99.90
423;DHT22;198;48.752;9.180;2022-12-18T18:17:40;-2.00;99.90
423;DHT22;198;48.752;9.180;2022-12-18T18:20:06;-1.90;99.90
423;DHT22;198;48.752;9.180;2022-12-18T18:22:32;-1.90;99.90
423;DHT22;198;48.752;9.180;2022-12-18T18:24:57;-1.90;99.90
423;DHT22;198;48.752;9.180;2022-12-18T18:27:24;-1.90;99.90
423;DHT22;198;48.752;9.180;2022-12-18T18:29:49;-1.90;99.90
423;DHT22;198;48.752;9.180;2022-12-18T18:32:15;-1.90;99.90
423;DHT22;198;48.752;9.180;2022-12-18T18:34:40;-1.90;99.90
423;DHT22;198;48.752;9.180;2022-12-18T18:37:06;-1.80;99.90
423;DHT22;198;48.752;9.180;2022-12-18T18:39:33;-1.80;99.90
423;DHT22;198;48.752;9.180;2022-12-18T18:41:58;-1.90;99.90
423;DHT22;198;48.752;9.180;2022-12-18T18:44:24;-1.90;99.90